METAR AND TAF INFORMATION
METAR FOR EPKT
ADDS - METARS form results

(1046 UTC 23 February 2018)
Data provider http://aviationweather.gov/adds/metars/
 
METAR text: EPKT 231030Z 07010KT 030V090 9999 BKN013 M04/M08 Q1021
Conditions at: EPKT (KATOWICE/PYRZOWI, PL) observed 1030 UTC 23 February 2018
Temperature: -4.0°C (25°F)
Dewpoint: -8.0°C (18°F) [RH = 74%]
Pressure (altimeter): 30.15 inches Hg (1021.0 mb)
Winds: from the ENE (70 degrees) at 12 MPH (10 knots; 5.2 m/s)
Visibility: 6 or more miles (10+ km)
Ceiling: 1300 feet AGL
Clouds: broken clouds at 1300 feet AGL
Weather: no significant weather observed at this time

METAR text: EPKT 231000Z 05008KT 9000 BKN011 M05/M08 Q1021
Conditions at: EPKT (KATOWICE/PYRZOWI, PL) observed 1000 UTC 23 February 2018
Temperature: -5.0°C (23°F)
Dewpoint: -8.0°C (18°F) [RH = 79%]
Pressure (altimeter): 30.15 inches Hg (1021.0 mb)
Winds: from the NE (50 degrees) at 9 MPH (8 knots; 4.2 m/s)
Visibility: 6 miles (9 km)
Ceiling: 1100 feet AGL
Clouds: broken clouds at 1100 feet AGL
Weather: no significant weather observed at this time

Forecast for: EPKT (KATOWICE/PYRZOWI, PL)
Text: TAF EPKT 230530Z 2306/2406 03010KT 9999 BKN020
Forecast period: 0600 UTC 23 February 2018 to 0600 UTC 24 February 2018
Forecast type: FROM: standard forecast or significant change
Winds: from the NNE (30 degrees) at 12 MPH (10 knots; 5.2 m/s)
Visibility: 6 or more miles (10+ km)
Ceiling: 2000 feet AGL
Clouds: broken clouds at 2000 feet AGL
Weather: no significant weather forecast for this period
Text: TEMPO 2306/2406 4000 -SN BR BKN008
Forecast period: 0600 UTC 23 February 2018 to 0600 UTC 24 February 2018
Forecast type: TEMPORARY: The following changes expected for less than half the time period
Visibility: 2.49 miles (4.01 km)
Ceiling: 800 feet AGL
Clouds: broken clouds at 800 feet AGL
Weather: -SN BR  (light snow, mist)

 AIRPORT MAP

 RUNWAY INFORMATION
Runway 09 Runway length 9183 ft Runway width 195 ft
Runway elevation 970 ft Runway displaced threshold 0 ft Runway heading 90
Runway 27 Runway length 9183 ft Runway width 195 ft
Runway elevation 994 ft Runway displaced threshold 0 ft Runway heading 270

 AIRPORT FREQUENCIES
Type APP Name APP Frequency 121.075 MHZ
Type GCCD Name HANDLING Frequency 131.45 MHZ
Type TWR Name TWR Frequency 129.25 MHZ

 AIRPORT NEAR NAVIGATION AIDS
Type NDB Name Katowice Frequency 285 KHZ



Powered by Virtual Airlines Manager [v2.6.2]